createdAt,value
2022-11-09T00:00:41.464Z,86.80
2022-11-09T00:03:08.295Z,86.70
2022-11-09T00:05:35.081Z,86.70
2022-11-09T00:08:01.847Z,86.70
2022-11-09T00:10:28.731Z,86.70
2022-11-09T00:12:55.490Z,86.50
2022-11-09T00:15:22.304Z,86.50
2022-11-09T00:17:49.068Z,86.60
2022-11-09T00:20:16.186Z,86.70
2022-11-09T00:22:42.978Z,86.70
2022-11-09T00:25:10.075Z,86.80
2022-11-09T00:27:36.896Z,86.80
2022-11-09T00:30:03.972Z,86.80
2022-11-09T00:32:30.927Z,86.80
2022-11-09T00:34:57.737Z,86.80
2022-11-09T00:37:24.541Z,86.80
2022-11-09T00:39:51.349Z,86.80
2022-11-09T00:42:18.099Z,86.90
2022-11-09T00:44:45.079Z,86.80
2022-11-09T00:47:11.883Z,86.80
2022-11-09T00:49:38.621Z,86.70
2022-11-09T00:52:05.717Z,86.90
2022-11-09T00:54:32.439Z,87.00
2022-11-09T00:56:59.136Z,87.00
2022-11-09T00:59:25.918Z,87.00
2022-11-09T01:01:52.672Z,87.00
2022-11-09T01:04:19.558Z,87.10
2022-11-09T01:06:46.422Z,87.00
2022-11-09T01:09:13.281Z,87.00
2022-11-09T01:11:40.065Z,87.00
2022-11-09T01:14:06.913Z,87.10
2022-11-09T01:16:33.748Z,87.00
2022-11-09T01:19:00.576Z,86.90
2022-11-09T01:21:29.446Z,87.00
2022-11-09T01:23:58.385Z,87.10
2022-11-09T01:26:25.686Z,86.90
2022-11-09T01:28:52.575Z,86.90
2022-11-09T01:31:21.317Z,87.10
2022-11-09T01:33:48.402Z,87.00
2022-11-09T01:36:18.415Z,87.00
2022-11-09T01:38:45.483Z,87.00
2022-11-09T01:41:24.756Z,87.10
2022-11-09T01:44:11.259Z,87.20
2022-11-09T01:47:00.961Z,87.20
2022-11-09T01:49:43.418Z,87.30
2022-11-09T01:52:18.878Z,87.30
2022-11-09T01:54:49.222Z,87.50
2022-11-09T01:57:26.502Z,87.50
2022-11-09T01:59:59.619Z,87.50
2022-11-09T02:02:26.484Z,87.50
2022-11-09T02:05:01.451Z,87.50
2022-11-09T02:07:28.358Z,87.50
2022-11-09T02:09:57.783Z,87.50
2022-11-09T02:12:25.965Z,87.70
2022-11-09T02:14:54.609Z,87.60
2022-11-09T02:17:21.738Z,87.60
2022-11-09T02:19:48.688Z,87.70
2022-11-09T02:22:15.660Z,87.60
2022-11-09T02:24:42.671Z,87.60
2022-11-09T02:27:09.511Z,87.50
2022-11-09T02:29:40.634Z,87.60
2022-11-09T02:32:12.127Z,87.70
2022-11-09T02:34:38.881Z,87.70
2022-11-09T02:37:06.075Z,87.60
2022-11-09T02:39:33.281Z,87.60
2022-11-09T02:42:09.841Z,87.60
2022-11-09T02:44:41.753Z,87.60
2022-11-09T02:47:08.595Z,87.70
2022-11-09T02:49:35.504Z,87.70
2022-11-09T02:52:02.650Z,87.70
2022-11-09T02:54:29.554Z,87.60
2022-11-09T02:56:56.364Z,87.70
2022-11-09T02:59:23.104Z,87.80
2022-11-09T03:01:49.916Z,87.90
2022-11-09T03:04:16.688Z,87.80
2022-11-09T03:06:43.588Z,87.70
2022-11-09T03:09:11.985Z,87.70
2022-11-09T03:11:40.795Z,87.70
2022-11-09T03:14:09.779Z,87.50
2022-11-09T03:16:37.676Z,87.50
2022-11-09T03:19:04.776Z,87.60
2022-11-09T03:21:31.533Z,87.60
2022-11-09T03:23:58.319Z,87.60
2022-11-09T03:26:25.243Z,87.60
2022-11-09T03:28:52.006Z,87.60
2022-11-09T03:31:18.835Z,87.60
2022-11-09T03:33:45.703Z,87.60
2022-11-09T03:36:12.582Z,87.60
2022-11-09T03:38:39.369Z,87.60
2022-11-09T03:41:06.189Z,87.60
2022-11-09T03:43:32.950Z,87.70
2022-11-09T03:45:59.696Z,87.60
2022-11-09T03:48:26.542Z,87.50
2022-11-09T03:50:53.316Z,87.60
2022-11-09T03:53:20.312Z,87.70
2022-11-09T03:55:47.303Z,87.80
2022-11-09T03:58:14.159Z,87.90
2022-11-09T04:00:41.024Z,87.90
2022-11-09T04:03:07.972Z,88.00
2022-11-09T04:05:34.837Z,88.20
2022-11-09T04:08:01.656Z,88.20
2022-11-09T04:10:28.461Z,88.50
2022-11-09T04:12:55.340Z,88.40
2022-11-09T04:15:22.419Z,88.50
2022-11-09T04:18:00.657Z,88.70
2022-11-09T04:20:29.110Z,88.60
2022-11-09T04:23:01.555Z,88.70
2022-11-09T04:25:29.190Z,88.60
2022-11-09T04:27:57.255Z,88.70
2022-11-09T04:30:27.872Z,88.70
2022-11-09T04:32:56.298Z,88.80
2022-11-09T04:35:23.675Z,88.80
2022-11-09T04:37:59.144Z,88.90
2022-11-09T04:40:27.726Z,89.00
2022-11-09T04:42:54.899Z,88.90
2022-11-09T04:45:22.638Z,88.90
2022-11-09T04:47:49.439Z,88.90
2022-11-09T04:50:16.568Z,88.90
2022-11-09T04:52:43.368Z,88.90
2022-11-09T04:55:10.140Z,89.00
2022-11-09T04:57:36.964Z,89.00
2022-11-09T05:00:04.503Z,89.00
2022-11-09T05:02:32.074Z,88.90
2022-11-09T05:04:58.875Z,88.90
2022-11-09T05:07:25.718Z,88.90
2022-11-09T05:09:52.550Z,89.10
2022-11-09T05:12:19.301Z,89.20
2022-11-09T05:14:46.056Z,89.30
2022-11-09T05:17:12.806Z,89.30
2022-11-09T05:19:39.558Z,89.30
2022-11-09T05:22:25.068Z,89.40
2022-11-09T05:24:51.981Z,89.40
2022-11-09T05:27:18.955Z,89.40
2022-11-09T05:29:45.792Z,89.40
2022-11-09T05:32:12.600Z,89.50
2022-11-09T05:34:39.387Z,89.60
2022-11-09T05:37:06.226Z,89.70
2022-11-09T05:39:33.288Z,89.80
2022-11-09T05:42:00.058Z,89.80
2022-11-09T05:44:26.923Z,89.80
2022-11-09T05:46:53.764Z,89.80
2022-11-09T05:49:20.556Z,89.80
2022-11-09T05:51:47.417Z,89.90
2022-11-09T05:54:14.357Z,90.00
2022-11-09T05:56:41.173Z,90.00
2022-11-09T05:59:09.190Z,90.00
2022-11-09T06:01:36.148Z,90.00
2022-11-09T06:04:03.054Z,90.10
2022-11-09T06:06:30.183Z,90.10
2022-11-09T06:08:57.061Z,90.10
2022-11-09T06:11:24.489Z,90.10
2022-11-09T06:13:52.635Z,90.20
2022-11-09T06:16:19.526Z,90.20
2022-11-09T06:18:46.451Z,90.20
2022-11-09T06:21:13.250Z,90.20
2022-11-09T06:23:40.208Z,90.30
2022-11-09T06:26:10.238Z,90.30
2022-11-09T06:28:41.559Z,90.30
2022-11-09T06:31:13.016Z,90.30
2022-11-09T06:33:39.833Z,90.40
2022-11-09T06:36:07.259Z,90.40
2022-11-09T06:38:34.237Z,90.50
2022-11-09T06:41:01.708Z,90.50
2022-11-09T06:43:29.217Z,90.50
2022-11-09T06:45:56.882Z,90.50
2022-11-09T06:48:24.731Z,90.60
2022-11-09T06:50:51.511Z,90.60
2022-11-09T06:53:19.427Z,90.60
2022-11-09T06:55:50.616Z,90.70
2022-11-09T06:58:19.674Z,90.70
2022-11-09T07:00:46.986Z,90.70
2022-11-09T07:03:18.859Z,90.70
2022-11-09T07:05:46.482Z,90.70
2022-11-09T07:08:14.288Z,90.70
2022-11-09T07:10:41.741Z,90.70
2022-11-09T07:13:09.612Z,90.70
2022-11-09T07:15:37.761Z,90.70
2022-11-09T07:18:07.034Z,90.80
2022-11-09T07:20:33.881Z,90.90
2022-11-09T07:23:00.693Z,90.90
2022-11-09T07:25:27.635Z,91.00
2022-11-09T07:27:54.660Z,91.00
2022-11-09T07:30:21.787Z,91.00
2022-11-09T07:35:35.410Z,91.00
2022-11-09T07:38:02.467Z,91.00
2022-11-09T07:40:30.170Z,91.00
2022-11-09T07:43:01.784Z,91.00
2022-11-09T07:45:30.296Z,91.00
2022-11-09T07:47:58.376Z,91.00
2022-11-09T07:50:26.327Z,91.00
2022-11-09T07:52:54.442Z,91.00
2022-11-09T07:55:21.244Z,91.00
2022-11-09T07:57:48.128Z,91.00
2022-11-09T08:00:18.727Z,91.10
2022-11-09T08:02:51.063Z,91.10
2022-11-09T08:05:17.922Z,91.10
2022-11-09T08:07:44.714Z,91.20
2022-11-09T08:10:11.482Z,91.10
2022-11-09T08:12:38.230Z,91.20
2022-11-09T08:15:06.106Z,91.20
2022-11-09T08:17:32.962Z,91.30
2022-11-09T08:19:59.754Z,91.20
2022-11-09T08:22:26.552Z,91.20
2022-11-09T08:24:53.399Z,91.20
2022-11-09T08:27:20.178Z,91.20
2022-11-09T08:29:47.104Z,91.30
2022-11-09T08:32:13.975Z,91.30
2022-11-09T08:34:40.775Z,91.30
2022-11-09T08:37:07.612Z,91.30
2022-11-09T08:39:34.446Z,91.40
2022-11-09T08:42:01.233Z,91.40
2022-11-09T08:44:28.057Z,91.40
2022-11-09T08:46:54.841Z,91.40
2022-11-09T08:49:21.649Z,91.40
2022-11-09T08:51:48.447Z,91.40
2022-11-09T08:54:15.285Z,91.50
2022-11-09T08:56:42.130Z,91.50
2022-11-09T08:59:08.970Z,91.50
2022-11-09T09:01:35.798Z,91.50
2022-11-09T09:04:02.621Z,91.50
2022-11-09T09:06:31.251Z,91.30
2022-11-09T09:08:58.446Z,91.10
2022-11-09T09:11:25.297Z,91.00
2022-11-09T09:13:52.114Z,91.10
2022-11-09T09:16:19.027Z,91.10
2022-11-09T09:18:48.319Z,91.00
2022-11-09T09:21:15.366Z,91.00
2022-11-09T09:23:42.203Z,91.00
2022-11-09T09:26:09.351Z,91.10
2022-11-09T09:28:36.438Z,91.10
2022-11-09T09:31:04.881Z,91.00
2022-11-09T09:33:31.941Z,90.90
2022-11-09T09:35:59.898Z,90.90
2022-11-09T09:38:27.950Z,90.80
2022-11-09T09:41:00.979Z,90.80
2022-11-09T09:43:46.327Z,90.70
2022-11-09T09:46:28.091Z,90.60
2022-11-09T09:49:07.329Z,90.80
2022-11-09T09:51:40.182Z,90.70
2022-11-09T09:54:20.944Z,90.70
2022-11-09T09:56:50.996Z,90.80
2022-11-09T09:59:24.485Z,90.70
2022-11-09T10:01:51.641Z,90.70
2022-11-09T10:04:44.802Z,90.60
2022-11-09T10:07:30.923Z,90.50
2022-11-09T10:10:12.540Z,90.50
2022-11-09T10:12:51.321Z,90.60
2022-11-09T10:15:24.619Z,90.50
2022-11-09T10:18:07.369Z,90.40
2022-11-09T10:21:13.102Z,90.50
2022-11-09T10:24:05.046Z,90.40
2022-11-09T10:26:48.528Z,90.30
2022-11-09T10:29:39.101Z,90.40
2022-11-09T10:32:14.590Z,90.40
2022-11-09T10:34:50.256Z,90.50
2022-11-09T10:37:19.001Z,90.50
2022-11-09T10:40:03.597Z,90.40
2022-11-09T10:42:30.751Z,90.50
2022-11-09T10:45:00.065Z,90.60
2022-11-09T10:47:26.887Z,90.70
2022-11-09T10:50:15.641Z,90.70
2022-11-09T10:52:47.266Z,90.70
2022-11-09T10:55:28.939Z,90.50
2022-11-09T10:58:01.057Z,90.60
2022-11-09T11:00:28.435Z,90.60
2022-11-09T11:02:56.085Z,90.70
2022-11-09T11:05:26.173Z,90.70
2022-11-09T11:07:52.976Z,90.50
2022-11-09T11:10:21.152Z,90.60
2022-11-09T11:13:00.212Z,90.50
2022-11-09T11:15:35.236Z,90.50
2022-11-09T11:18:18.802Z,90.70
2022-11-09T11:20:45.959Z,90.60
2022-11-09T11:23:22.087Z,90.40
2022-11-09T11:25:57.872Z,90.40
2022-11-09T11:28:40.004Z,90.10
2022-11-09T11:31:15.671Z,90.20
2022-11-09T11:33:42.822Z,89.70
2022-11-09T11:36:35.967Z,89.70
2022-11-09T11:39:39.196Z,89.10
2022-11-09T11:42:20.969Z,88.70
2022-11-09T11:45:07.136Z,88.80
2022-11-09T11:48:31.857Z,88.30
2022-11-09T11:51:21.223Z,88.50
2022-11-09T11:54:12.573Z,88.20
2022-11-09T11:56:46.705Z,88.30
2022-11-09T11:59:38.475Z,88.20
2022-11-09T12:02:26.401Z,88.00
2022-11-09T12:05:22.310Z,87.50
2022-11-09T12:08:04.134Z,87.60
2022-11-09T12:10:41.311Z,88.30
2022-11-09T12:13:18.266Z,87.80
2022-11-09T12:15:59.321Z,86.90
2022-11-09T12:18:50.300Z,87.30
2022-11-09T12:21:22.182Z,87.40
2022-11-09T12:23:51.813Z,86.80
2022-11-09T12:26:39.498Z,86.60
2022-11-09T12:29:39.501Z,86.60
2022-11-09T12:32:25.067Z,86.50
2022-11-09T12:35:11.311Z,85.80
2022-11-09T12:37:44.648Z,85.40
2022-11-09T12:40:23.380Z,85.20
2022-11-09T12:43:05.755Z,85.20
2022-11-09T12:45:38.842Z,85.40
2022-11-09T12:48:20.850Z,85.50
2022-11-09T12:50:48.159Z,85.60
2022-11-09T12:53:16.778Z,85.20
2022-11-09T12:56:04.924Z,85.10
2022-11-09T12:58:35.176Z,85.60
2022-11-09T13:01:06.179Z,85.40
2022-11-09T13:03:40.579Z,84.90
2022-11-09T13:06:28.912Z,84.80
2022-11-09T13:09:03.667Z,85.50
2022-11-09T13:11:38.483Z,85.20
2022-11-09T13:14:23.507Z,85.20
2022-11-09T13:16:55.863Z,85.10
2022-11-09T13:19:34.891Z,84.50
2022-11-09T13:22:15.017Z,84.50
2022-11-09T13:25:00.015Z,83.80
2022-11-09T13:27:32.854Z,84.20
2022-11-09T13:30:23.003Z,84.30
2022-11-09T13:33:09.546Z,84.80
2022-11-09T13:35:42.507Z,84.80
2022-11-09T13:38:20.554Z,84.60
2022-11-09T13:40:50.186Z,84.80
2022-11-09T13:43:24.924Z,84.50
2022-11-09T13:46:00.972Z,84.60
2022-11-09T13:48:34.630Z,84.90
2022-11-09T13:51:08.889Z,84.90
2022-11-09T13:53:41.557Z,85.10
2022-11-09T13:56:35.582Z,85.10
2022-11-09T13:59:21.502Z,85.40
2022-11-09T14:02:00.151Z,85.40
2022-11-09T14:04:39.850Z,85.50
2022-11-09T14:07:16.510Z,85.30
2022-11-09T14:10:02.197Z,85.40
2022-11-09T14:12:41.964Z,85.40
2022-11-09T14:15:17.895Z,85.00
2022-11-09T14:17:53.794Z,85.00
2022-11-09T14:20:50.805Z,85.10
2022-11-09T14:23:20.719Z,85.20
2022-11-09T14:25:49.263Z,85.30
2022-11-09T14:28:35.355Z,85.60
2022-11-09T14:31:02.698Z,85.50
2022-11-09T14:33:35.425Z,85.20
2022-11-09T14:36:04.310Z,85.60
2022-11-09T14:38:42.740Z,85.80
2022-11-09T14:41:22.505Z,85.80
2022-11-09T14:43:49.795Z,86.10
2022-11-09T14:46:22.631Z,86.20
2022-11-09T14:48:58.493Z,86.10
2022-11-09T14:51:38.141Z,86.10
2022-11-09T14:54:14.383Z,86.30
2022-11-09T14:56:42.518Z,86.40
2022-11-09T14:59:15.172Z,86.40
2022-11-09T15:01:56.405Z,86.50
2022-11-09T15:04:23.771Z,86.60
2022-11-09T15:06:56.094Z,86.60
2022-11-09T15:09:31.875Z,86.60
2022-11-09T15:11:58.789Z,86.30
2022-11-09T15:14:27.554Z,86.30
2022-11-09T15:17:18.899Z,86.40
2022-11-09T15:19:50.556Z,86.40
2022-11-09T15:22:42.272Z,86.30
2022-11-09T15:25:44.665Z,86.70
2022-11-09T15:28:14.231Z,86.90
2022-11-09T15:31:05.110Z,87.20
2022-11-09T15:33:34.884Z,87.20
2022-11-09T15:36:06.778Z,86.90
2022-11-09T15:38:42.281Z,86.60
2022-11-09T15:41:15.442Z,85.80
2022-11-09T15:43:43.380Z,85.80
2022-11-09T15:46:14.899Z,86.00
2022-11-09T15:49:27.124Z,86.00
2022-11-09T15:51:54.388Z,86.00
2022-11-09T15:54:23.086Z,86.10
2022-11-09T15:56:51.344Z,86.20
2022-11-09T15:59:24.088Z,86.50
2022-11-09T16:01:51.047Z,86.40
2022-11-09T16:04:17.999Z,86.50
2022-11-09T16:06:46.729Z,86.30
2022-11-09T16:09:14.111Z,86.20
2022-11-09T16:11:41.039Z,86.10
2022-11-09T16:14:08.065Z,86.00
2022-11-09T16:16:34.813Z,85.80
2022-11-09T16:19:01.700Z,85.50
2022-11-09T16:21:28.475Z,85.30
2022-11-09T16:23:58.460Z,85.30
2022-11-09T16:26:26.183Z,85.10
2022-11-09T16:28:54.777Z,84.80
2022-11-09T16:31:41.030Z,84.80
2022-11-09T16:34:09.886Z,84.70
2022-11-09T16:36:38.857Z,84.60
2022-11-09T16:39:18.335Z,84.60
2022-11-09T16:41:50.218Z,84.50
2022-11-09T16:44:22.375Z,84.40
2022-11-09T16:46:49.474Z,84.40
2022-11-09T16:49:17.639Z,84.50
2022-11-09T16:51:47.051Z,84.30
2022-11-09T16:54:13.931Z,84.20
2022-11-09T16:56:41.058Z,84.20
2022-11-09T16:59:08.009Z,84.20
2022-11-09T17:01:37.689Z,84.10
2022-11-09T17:04:04.848Z,84.20
2022-11-09T17:06:35.967Z,84.30
2022-11-09T17:09:02.941Z,84.50
2022-11-09T17:11:33.729Z,84.50
2022-11-09T17:14:01.291Z,84.70
2022-11-09T17:16:28.420Z,84.60
2022-11-09T17:18:58.903Z,84.70
2022-11-09T17:21:27.277Z,84.70
2022-11-09T17:23:56.310Z,84.60
2022-11-09T17:26:24.401Z,84.60
2022-11-09T17:28:51.408Z,84.70
2022-11-09T17:31:23.417Z,84.70
2022-11-09T17:33:50.280Z,84.80
2022-11-09T17:36:29.974Z,84.90
2022-11-09T17:39:06.361Z,85.00
2022-11-09T17:41:33.373Z,85.10
2022-11-09T17:44:01.634Z,85.20
2022-11-09T17:46:28.429Z,85.30
2022-11-09T17:48:55.499Z,85.20
2022-11-09T17:51:25.305Z,85.40
2022-11-09T17:54:02.115Z,85.30
2022-11-09T17:56:29.081Z,85.40
2022-11-09T17:58:56.019Z,85.30
2022-11-09T18:01:22.928Z,85.30
2022-11-09T18:03:49.776Z,85.30
2022-11-09T18:06:20.204Z,85.30
2022-11-09T18:08:58.277Z,85.40
2022-11-09T18:11:34.004Z,85.40
2022-11-09T18:14:01.107Z,85.50
2022-11-09T18:16:28.240Z,85.50
2022-11-09T18:19:02.717Z,85.60
2022-11-09T18:21:29.690Z,85.60
2022-11-09T18:23:56.698Z,85.70
2022-11-09T18:26:23.465Z,85.90
2022-11-09T18:28:50.322Z,85.80
2022-11-09T18:31:17.053Z,85.90
2022-11-09T18:33:44.156Z,86.00
2022-11-09T18:36:13.372Z,85.90
2022-11-09T18:38:40.160Z,86.00
2022-11-09T18:41:10.816Z,86.10
2022-11-09T18:43:37.787Z,86.30
2022-11-09T18:46:07.371Z,86.30
2022-11-09T18:48:34.930Z,86.30
2022-11-09T18:51:02.376Z,86.40
2022-11-09T18:53:36.050Z,86.40
2022-11-09T18:56:07.034Z,86.30
2022-11-09T18:58:34.581Z,86.30
2022-11-09T19:01:07.549Z,86.30
2022-11-09T19:03:34.777Z,86.20
2022-11-09T19:06:11.880Z,86.10
2022-11-09T19:08:57.110Z,86.00
2022-11-09T19:11:24.383Z,85.80
2022-11-09T19:13:51.144Z,85.60
2022-11-09T19:16:37.273Z,85.60
2022-11-09T19:19:04.019Z,85.50
2022-11-09T19:21:51.323Z,85.40
2022-11-09T19:24:22.069Z,85.40
2022-11-09T19:26:49.856Z,85.30
2022-11-09T19:29:17.352Z,85.20
2022-11-09T19:31:45.604Z,85.20
2022-11-09T19:34:15.153Z,85.20
2022-11-09T19:36:43.221Z,85.20
2022-11-09T19:39:10.279Z,85.10
2022-11-09T19:41:37.078Z,85.20
2022-11-09T19:44:04.024Z,85.20
2022-11-09T19:46:33.766Z,85.10
2022-11-09T19:49:01.558Z,85.20
2022-11-09T19:51:31.732Z,85.10
2022-11-09T19:54:00.594Z,85.30
2022-11-09T19:56:29.327Z,85.30
2022-11-09T19:58:59.835Z,85.30
2022-11-09T20:01:27.058Z,85.30
2022-11-09T20:03:55.895Z,85.40
2022-11-09T20:06:23.908Z,85.40
2022-11-09T20:08:52.205Z,85.50
2022-11-09T20:11:40.042Z,85.60
2022-11-09T20:14:08.287Z,85.60
2022-11-09T20:16:36.554Z,85.60
2022-11-09T20:19:05.347Z,85.60
2022-11-09T20:21:32.824Z,85.70
2022-11-09T20:23:59.576Z,85.70
2022-11-09T20:26:26.504Z,85.70
2022-11-09T20:28:54.049Z,85.70
2022-11-09T20:31:22.004Z,85.70
2022-11-09T20:33:50.063Z,85.80
2022-11-09T20:36:18.793Z,86.00
2022-11-09T20:38:46.093Z,85.90
2022-11-09T20:41:13.277Z,86.00
2022-11-09T20:43:40.169Z,85.90
2022-11-09T20:46:18.188Z,85.80
2022-11-09T20:48:54.677Z,85.90
2022-11-09T20:51:23.830Z,86.00
2022-11-09T20:53:51.228Z,86.00
2022-11-09T20:56:19.508Z,85.90
2022-11-09T20:58:47.192Z,85.90
2022-11-09T21:01:20.745Z,86.20
2022-11-09T21:03:49.764Z,86.10
2022-11-09T21:06:16.866Z,86.00
2022-11-09T21:08:45.159Z,86.10
2022-11-09T21:11:13.689Z,86.20
2022-11-09T21:13:46.073Z,86.10
2022-11-09T21:16:17.582Z,86.20
2022-11-09T21:18:44.364Z,86.20
2022-11-09T21:21:17.143Z,86.30
2022-11-09T21:24:03.438Z,86.30
2022-11-09T21:26:48.893Z,86.30
2022-11-09T21:29:36.976Z,86.40
2022-11-09T21:32:04.444Z,86.50
2022-11-09T21:34:36.321Z,86.40
2022-11-09T21:37:03.631Z,86.50
2022-11-09T21:39:30.436Z,86.60
2022-11-09T21:41:57.356Z,86.60
2022-11-09T21:44:24.533Z,86.80
2022-11-09T21:46:51.301Z,86.90
2022-11-09T21:49:18.087Z,86.90
2022-11-09T21:51:47.071Z,86.90
2022-11-09T21:54:13.971Z,87.00
2022-11-09T21:56:40.729Z,87.00
2022-11-09T21:59:07.723Z,87.00
2022-11-09T22:01:34.874Z,87.10
2022-11-09T22:04:02.007Z,87.30
2022-11-09T22:06:28.868Z,87.40
2022-11-09T22:08:55.756Z,87.40
2022-11-09T22:11:45.033Z,87.30
2022-11-09T22:14:35.090Z,87.40
2022-11-09T22:17:02.594Z,87.50
2022-11-09T22:19:48.103Z,87.70
2022-11-09T22:22:15.486Z,87.60
2022-11-09T22:24:42.504Z,87.60
2022-11-09T22:27:09.353Z,87.70
2022-11-09T22:29:36.402Z,87.80
2022-11-09T22:32:03.872Z,87.60
2022-11-09T22:34:30.628Z,87.70
2022-11-09T22:36:57.431Z,87.80
2022-11-09T22:39:24.281Z,87.80
2022-11-09T22:41:51.078Z,87.90
2022-11-09T22:44:18.128Z,88.00
2022-11-09T22:46:44.983Z,87.90
2022-11-09T22:49:11.806Z,88.00
2022-11-09T22:51:38.635Z,88.00
2022-11-09T22:54:05.490Z,88.00
2022-11-09T22:56:32.380Z,88.20
2022-11-09T22:58:59.208Z,88.30
2022-11-09T23:01:26.065Z,88.20
2022-11-09T23:03:53.147Z,88.20
2022-11-09T23:06:21.931Z,88.10
2022-11-09T23:08:49.143Z,88.20
2022-11-09T23:11:21.281Z,88.20
2022-11-09T23:13:55.991Z,88.20
2022-11-09T23:16:23.824Z,88.30
2022-11-09T23:18:53.868Z,88.30
2022-11-09T23:21:35.607Z,88.30
2022-11-09T23:24:05.355Z,88.40
2022-11-09T23:26:33.414Z,88.50
2022-11-09T23:29:00.638Z,88.60
2022-11-09T23:31:27.745Z,88.50
2022-11-09T23:33:56.409Z,88.60
2022-11-09T23:36:25.171Z,88.50
2022-11-09T23:38:52.782Z,88.70
2022-11-09T23:41:19.868Z,88.90
2022-11-09T23:43:49.620Z,89.00
2022-11-09T23:46:18.020Z,89.10
2022-11-09T23:48:45.246Z,89.20
2022-11-09T23:51:12.651Z,89.20
2022-11-09T23:53:39.688Z,89.20
2022-11-09T23:56:09.366Z,89.30
2022-11-09T23:58:36.649Z,89.40
